Time;durP1;ratioP1;P1;durP2;ratioP2;P2;SDS_P1;SDS_P2;PMS_P1;PMS_P2;Temp;Humidity;BMP_temperature;BMP_pressure;BME280_temperature;BME280_humidity;BME280_pressure;Samples;Min_cycle;Max_cycle;Signal;HPM_P1;HPM_P2
2022/10/05 00:00:47;;;;;;;5.10;3.22;;;;;;;8.66;100.00;99472.72;5174118;27;20047;-70
2022/10/05 00:03:14;;;;;;;6.10;3.55;;;;;;;8.39;100.00;99485.16;5174496;27;20058;-70
2022/10/05 00:05:41;;;;;;;4.50;3.55;;;;;;;8.59;100.00;99475.25;5174347;27;20516;-70
2022/10/05 00:08:13;;;;;;;4.95;3.20;;;;;;;8.53;100.00;99466.50;5174169;27;20046;-69
2022/10/05 00:10:41;;;;;;;6.63;3.25;;;;;;;8.68;100.00;99465.00;5174714;27;20046;-70
2022/10/05 00:13:12;;;;;;;5.03;3.45;;;;;;;8.77;100.00;99475.81;5174261;27;20088;-69
2022/10/05 00:15:39;;;;;;;6.22;3.45;;;;;;;8.52;100.00;99470.34;5174210;27;20498;-70
2022/10/05 00:18:12;;;;;;;4.05;2.97;;;;;;;8.64;100.00;99477.75;5174055;27;20102;-70
2022/10/05 00:20:40;;;;;;;7.65;3.75;;;;;;;8.69;100.00;99491.16;5174217;27;20050;-70
2022/10/05 00:23:14;;;;;;;5.93;3.30;;;;;;;8.56;100.00;99493.13;5173898;27;20046;-70
2022/10/05 00:25:40;;;;;;;;;;;;;;;8.77;100.00;99479.31;5174295;27;20068;-69
2022/10/05 00:28:16;;;;;;;4.20;3.30;;;;;;;8.74;100.00;99481.94;5173627;27;19922;-70
2022/10/05 00:30:43;;;;;;;8.75;3.90;;;;;;;8.78;100.00;99478.19;5173995;27;20050;-70
2022/10/05 00:33:09;;;;;;;5.68;3.97;;;;;;;8.76;100.00;99474.19;5174076;27;20046;-70
2022/10/05 00:35:36;;;;;;;4.35;2.95;;;;;;;8.84;100.00;99490.47;5173851;27;20046;-70
2022/10/05 00:38:03;;;;;;;4.97;3.65;;;;;;;8.58;100.00;99499.03;5173966;27;20050;-69
2022/10/05 00:40:40;;;;;;;6.15;4.00;;;;;;;8.80;100.00;99495.03;5173539;27;20046;-69
2022/10/05 00:43:28;;;;;;;8.73;3.40;;;;;;;8.72;100.00;99499.47;5173881;27;20057;-70
2022/10/05 00:45:59;;;;;;;6.05;4.30;;;;;;;8.57;100.00;99493.94;5173628;27;20050;-70
2022/10/05 00:48:35;;;;;;;6.57;4.25;;;;;;;8.54;100.00;99489.94;5173482;27;20054;-69
2022/10/05 00:51:20;;;;;;;6.60;3.67;;;;;;;8.76;100.00;99487.84;5172561;27;20504;-70
2022/10/05 00:53:54;;;;;;;7.32;3.80;;;;;;;8.76;100.00;99496.06;5173548;27;20046;-70
2022/10/05 00:56:43;;;;;;;4.50;3.75;;;;;;;8.87;100.00;99500.72;5173480;27;20478;-70
2022/10/05 00:59:24;;;;;;;5.03;3.53;;;;;;;8.89;100.00;99501.16;5173233;27;20050;-70
2022/10/05 01:01:56;;;;;;;3.95;3.55;;;;;;;8.87;100.00;99506.19;5173586;27;20068;-70
2022/10/05 01:04:32;;;;;;;6.97;3.85;;;;;;;8.87;100.00;99508.91;5173359;27;20050;-70
2022/10/05 01:07:07;;;;;;;4.57;3.17;;;;;;;8.61;100.00;99514.75;5173260;27;20072;-70
2022/10/05 01:09:44;;;;;;;5.72;3.22;;;;;;;8.78;100.00;99512.91;5173286;27;20136;-70
2022/10/05 01:12:19;;;;;;;5.53;4.20;;;;;;;8.60;100.00;99512.38;5173138;27;20106;-70
2022/10/05 01:14:54;;;;;;;3.78;3.20;;;;;;;8.68;100.00;99508.72;5173274;27;20045;-69
2022/10/05 01:17:27;;;;;;;5.85;3.58;;;;;;;8.71;100.00;99511.56;5173026;27;20050;-70
2022/10/05 01:20:11;;;;;;;5.13;3.45;;;;;;;8.63;100.00;99514.41;5172979;27;20057;-70
2022/10/05 01:22:58;;;;;;;4.95;3.40;;;;;;;8.87;100.00;99513.59;5173199;27;20432;-70
2022/10/05 01:25:34;;;;;;;7.95;4.22;;;;;;;8.86;100.00;99514.72;5172897;27;20046;-70
2022/10/05 01:28:07;;;;;;;8.75;4.53;;;;;;;8.78;100.00;99526.59;5172782;27;20054;-70
2022/10/05 01:30:41;;;;;;;13.25;3.90;;;;;;;8.79;100.00;99528.97;5172802;27;20422;-70
2022/10/05 01:33:16;;;;;;;4.10;3.67;;;;;;;8.89;100.00;99527.69;5172834;27;20054;-69
2022/10/05 01:35:50;;;;;;;7.70;4.72;;;;;;;8.91;100.00;99531.69;5172734;27;20279;-70
2022/10/05 01:38:29;;;;;;;5.78;3.63;;;;;;;8.81;100.00;99531.38;5172808;27;20054;-70
2022/10/05 01:41:05;;;;;;;5.53;3.67;;;;;;;8.44;100.00;99543.13;5172885;27;20042;-70
2022/10/05 01:43:40;;;;;;;7.70;3.53;;;;;;;8.30;100.00;99537.16;5172656;27;20056;-70
2022/10/05 01:46:19;;;;;;;4.95;3.63;;;;;;;8.57;100.00;99532.19;5172873;27;20428;-70
2022/10/05 01:48:58;;;;;;;4.95;3.88;;;;;;;8.46;100.00;99537.28;5172540;27;20122;-70
2022/10/05 01:51:36;;;;;;;5.05;3.67;;;;;;;8.60;100.00;99515.13;5172476;27;20057;-70
2022/10/05 01:54:12;;;;;;;3.85;2.72;;;;;;;8.35;100.00;99528.72;5172507;27;20136;-70
2022/10/05 01:56:45;;;;;;;6.25;3.90;;;;;;;8.63;100.00;99522.59;5172511;27;20105;-70
2022/10/05 01:59:24;;;;;;;4.82;4.03;;;;;;;8.73;100.00;99530.38;5172991;27;20382;-69
2022/10/05 02:01:58;;;;;;;5.90;4.43;;;;;;;8.68;100.00;99539.56;5172135;27;20042;-70
2022/10/05 02:04:38;;;;;;;10.30;3.67;;;;;;;8.68;100.00;99536.06;5172740;27;20501;-69
2022/10/05 02:07:13;;;;;;;4.75;4.03;;;;;;;8.52;100.00;99543.34;5172300;27;20050;-70
2022/10/05 02:09:45;;;;;;;5.45;3.63;;;;;;;8.66;100.00;99555.53;5172322;27;20050;-70
2022/10/05 02:12:17;;;;;;;12.98;3.92;;;;;;;8.66;100.00;99565.66;5172366;27;20046;-70
2022/10/05 02:14:48;;;;;;;4.47;3.85;;;;;;;8.35;100.00;99582.56;5172393;27;20065;-70
2022/10/05 02:17:17;;;;;;;7.78;4.30;;;;;;;8.64;100.00;99570.69;5172219;27;20497;-69
2022/10/05 02:19:48;;;;;;;4.28;3.58;;;;;;;8.39;100.00;99567.91;5172105;27;20057;-70
2022/10/05 02:22:19;;;;;;;8.98;4.55;;;;;;;8.45;100.00;99573.97;5172139;27;20050;-70
2022/10/05 02:24:52;;;;;;;4.65;3.25;;;;;;;8.36;100.00;99565.03;5172150;27;20106;-70
2022/10/05 02:27:26;;;;;;;12.43;3.70;;;;;;;8.48;100.00;99573.28;5172099;27;20058;-70
2022/10/05 02:29:56;;;;;;;5.40;3.28;;;;;;;8.69;100.00;99587.63;5172231;27;20416;-70
2022/10/05 02:32:26;;;;;;;7.18;3.88;;;;;;;8.64;100.00;99595.28;5171879;27;20056;-69
2022/10/05 02:34:57;;;;;;;8.05;3.60;;;;;;;8.73;100.00;99615.09;5172364;27;20890;-69
2022/10/05 02:37:33;;;;;;;6.57;3.80;;;;;;;8.53;100.00;99630.47;5172102;27;20056;-70
2022/10/05 02:40:11;;;;;;;5.32;3.38;;;;;;;8.39;100.00;99630.75;5172079;27;20536;-70
2022/10/05 02:42:46;;;;;;;11.00;3.42;;;;;;;8.63;100.00;99623.72;5171834;27;20053;-70
2022/10/05 02:45:21;;;;;;;6.30;3.22;;;;;;;8.66;100.00;99628.50;5171751;27;20520;-70
2022/10/05 02:47:57;;;;;;;4.20;3.45;;;;;;;8.57;100.00;99636.84;5172018;27;20050;-70
2022/10/05 02:50:32;;;;;;;6.35;3.60;;;;;;;8.64;100.00;99637.06;5171994;27;20050;-69
2022/10/05 02:53:13;;;;;;;3.70;3.10;;;;;;;8.83;100.00;99641.97;5171974;27;20098;-70
2022/10/05 02:55:45;;;;;;;4.03;3.17;;;;;;;8.69;100.00;99647.75;5171591;27;20057;-70
2022/10/05 02:58:14;;;;;;;6.15;3.78;;;;;;;8.67;100.00;99638.31;5172078;27;20050;-70
2022/10/05 03:00:47;;;;;;;5.82;3.72;;;;;;;8.79;100.00;99629.31;5171513;27;20491;-70
2022/10/05 03:03:19;;;;;;;7.85;3.28;;;;;;;8.85;100.00;99638.91;5172115;27;20486;-70
2022/10/05 03:05:50;;;;;;;3.50;2.92;;;;;;;8.86;100.00;99630.38;5171789;27;20090;-70
2022/10/05 03:08:21;;;;;;;4.22;3.30;;;;;;;8.72;100.00;99627.16;5171368;27;20458;-70
2022/10/05 03:10:54;;;;;;;4.05;3.10;;;;;;;8.34;100.00;99630.94;5171480;27;20093;-70
2022/10/05 03:13:26;;;;;;;6.80;3.75;;;;;;;8.49;100.00;99613.91;5171594;27;20050;-70
2022/10/05 03:16:25;;;;;;;7.07;3.45;;;;;;;8.82;100.00;99614.97;5174741;27;20109;-70
2022/10/05 03:19:05;;;;;;;3.70;3.38;;;;;;;8.73;100.00;99634.25;5174834;27;20413;-70
2022/10/05 03:21:47;;;;;;;3.95;3.47;;;;;;;8.84;100.00;99634.56;5175218;27;20057;-70
2022/10/05 03:24:29;;;;;;;6.38;3.53;;;;;;;8.76;100.00;99630.78;5175442;27;20477;-70
2022/10/05 03:27:03;;;;;;;5.35;3.38;;;;;;;8.58;100.00;99624.75;5174773;27;20061;-70
2022/10/05 03:29:37;;;;;;;8.45;3.95;;;;;;;8.74;100.00;99622.16;5175403;27;20177;-70
2022/10/05 03:32:14;;;;;;;5.25;3.25;;;;;;;8.76;100.00;99625.31;5174734;27;20049;-70
2022/10/05 03:34:45;;;;;;;3.50;3.20;;;;;;;8.85;100.00;99630.69;5174748;27;20050;-70
2022/10/05 03:37:19;;;;;;;8.00;3.50;;;;;;;8.90;100.00;99641.41;5174918;27;20543;-69
2022/10/05 03:39:52;;;;;;;4.63;3.47;;;;;;;8.91;100.00;99637.53;5174666;27;20671;-69
2022/10/05 03:42:30;;;;;;;10.57;3.63;;;;;;;8.81;100.00;99635.25;5174911;27;20046;-70
2022/10/05 03:45:03;;;;;;;5.63;3.10;;;;;;;8.69;100.00;99636.81;5174992;27;20046;-70
2022/10/05 03:47:39;;;;;;;7.68;3.47;;;;;;;8.73;100.00;99636.97;5174907;27;20470;-70
2022/10/05 03:50:24;;;;;;;8.43;3.65;;;;;;;8.68;100.00;99629.78;5174324;27;20072;-70
2022/10/05 03:52:56;;;;;;;10.10;4.20;;;;;;;8.80;100.00;99620.00;5174418;27;20058;-70
2022/10/05 03:55:29;;;;;;;6.70;3.95;;;;;;;8.72;100.00;99624.41;5174740;27;20042;-69
2022/10/05 03:57:59;;;;;;;9.88;4.28;;;;;;;8.76;100.00;99616.34;5174508;27;20470;-70
2022/10/05 04:00:26;;;;;;;9.77;3.90;;;;;;;8.76;100.00;99616.34;5174303;27;20137;-70
2022/10/05 04:02:59;;;;;;;12.05;4.05;;;;;;;8.82;100.00;99614.97;5174378;27;20042;-70
2022/10/05 04:05:31;;;;;;;12.30;4.45;;;;;;;8.82;100.00;99626.69;5174485;27;20046;-70
2022/10/05 04:08:03;;;;;;;5.75;4.15;;;;;;;8.80;100.00;99620.78;5174012;27;20050;-70
2022/10/05 04:10:40;;;;;;;5.47;3.60;;;;;;;8.88;100.00;99619.06;5174276;27;20050;-70
2022/10/05 04:13:14;;;;;;;6.68;3.20;;;;;;;8.75;100.00;99614.75;5174308;27;20081;-70
2022/10/05 04:15:45;;;;;;;8.37;4.33;;;;;;;8.87;100.00;99599.16;5174743;27;20056;-70
2022/10/05 04:18:24;;;;;;;4.45;3.60;;;;;;;8.78;100.00;99592.19;5174427;27;20276;-69
2022/10/05 04:20:55;;;;;;;7.30;3.33;;;;;;;8.64;100.00;99592.53;5173891;27;20058;-70
2022/10/05 04:23:32;;;;;;;8.75;3.55;;;;;;;8.96;100.00;99571.66;5174422;27;20056;-70
2022/10/05 04:26:04;;;;;;;9.68;3.50;;;;;;;8.83;100.00;99587.31;5173833;27;20551;-69
2022/10/05 04:28:44;;;;;;;7.78;3.67;;;;;;;9.09;100.00;99584.19;5173924;27;20531;-70
2022/10/05 04:31:15;;;;;;;5.47;3.00;;;;;;;9.16;100.00;99611.78;5173954;27;20422;-70
2022/10/05 04:33:51;;;;;;;6.65;3.20;;;;;;;9.08;100.00;99639.22;5173957;27;20046;-70
2022/10/05 04:36:23;;;;;;;7.90;4.03;;;;;;;9.00;100.00;99627.28;5173945;27;20050;-69
2022/10/05 04:39:03;;;;;;;5.10;3.70;;;;;;;8.71;100.00;99629.09;5173811;27;20053;-69
2022/10/05 04:41:58;;;;;;;7.78;3.40;;;;;;;9.07;100.00;99615.78;5173856;27;20548;-70
2022/10/05 04:44:57;;;;;;;8.50;5.13;;;;;;;9.01;100.00;99617.13;5173589;27;20050;-70
2022/10/05 04:47:40;;;;;;;9.77;5.28;;;;;;;8.99;100.00;99617.47;5170069;27;20046;-69
2022/10/05 04:50:22;;;;;;;5.50;3.60;;;;;;;9.25;100.00;99635.44;5173740;27;20102;-70
2022/10/05 04:52:59;;;;;;;7.15;4.00;;;;;;;8.92;100.00;99639.91;5173536;27;20069;-69
2022/10/05 04:55:35;;;;;;;7.95;4.28;;;;;;;9.15;100.00;99628.50;5173582;27;20046;-70
2022/10/05 04:58:12;;;;;;;17.90;5.88;;;;;;;9.17;100.00;99628.97;5173673;27;20171;-70
2022/10/05 05:00:53;;;;;;;4.72;4.13;;;;;;;8.94;100.00;99643.13;5173307;27;20088;-70
2022/10/05 05:03:40;;;;;;;8.95;5.15;;;;;;;9.21;100.00;99623.63;5173417;27;20600;-70
2022/10/05 05:06:23;;;;;;;8.77;4.35;;;;;;;8.66;100.00;99625.78;5173196;27;20050;-70
2022/10/05 05:09:08;;;;;;;7.10;4.32;;;;;;;9.18;100.00;99601.25;5173216;27;20050;-69
2022/10/05 05:11:47;;;;;;;8.82;3.67;;;;;;;9.17;100.00;99620.78;5173299;27;20046;-70
2022/10/05 05:14:31;;;;;;;6.18;3.58;;;;;;;9.29;100.00;99633.63;5173247;27;20510;-70
2022/10/05 05:17:12;;;;;;;6.10;3.08;;;;;;;9.35;100.00;99652.19;5173481;27;20053;-70
2022/10/05 05:19:50;;;;;;;5.57;3.53;;;;;;;9.16;100.00;99666.47;5173046;27;20581;-70
2022/10/05 05:22:28;;;;;;;8.63;3.72;;;;;;;9.07;100.00;99645.84;5173284;27;20046;-69
2022/10/05 05:25:11;;;;;;;5.70;3.63;;;;;;;9.42;100.00;99632.44;5172866;27;20177;-67
2022/10/05 05:27:41;;;;;;;8.75;3.85;;;;;;;9.54;100.00;99648.06;5172966;27;20053;-67
2022/10/05 05:30:19;;;;;;;8.52;4.00;;;;;;;9.42;100.00;99652.41;5173057;27;20050;-68
2022/10/05 05:32:58;;;;;;;9.55;2.90;;;;;;;9.61;100.00;99637.31;5172817;27;20046;-66
2022/10/05 05:35:39;;;;;;;10.15;3.53;;;;;;;9.68;100.00;99651.22;5172813;27;20050;-67
2022/10/05 05:38:18;;;;;;;7.68;3.33;;;;;;;9.66;100.00;99654.31;5171899;27;20046;-68
2022/10/05 05:40:50;;;;;;;5.05;2.78;;;;;;;9.50;100.00;99669.84;5173184;27;20081;-68
2022/10/05 05:43:24;;;;;;;5.00;2.92;;;;;;;9.42;100.00;99674.28;5172597;27;20046;-71
2022/10/05 05:45:58;;;;;;;2.80;2.22;;;;;;;9.08;100.00;99677.53;5172586;27;20050;-72
2022/10/05 05:48:28;;;;;;;;;;;;;;;9.37;100.00;99652.66;5173317;27;20520;-72
2022/10/05 05:50:59;;;;;;;4.57;2.55;;;;;;;9.50;100.00;99667.13;5172392;27;19945;-70
2022/10/05 05:53:31;;;;;;;8.18;2.97;;;;;;;9.30;100.00;99674.34;5172568;27;20046;-70
2022/10/05 05:56:01;;;;;;;7.75;2.20;;;;;;;9.82;100.00;99670.00;5172397;27;20054;-69
2022/10/05 05:58:33;;;;;;;12.50;3.10;;;;;;;9.56;100.00;99673.97;5172378;27;20054;-72
2022/10/05 06:01:04;;;;;;;6.32;2.83;;;;;;;9.75;100.00;99681.53;5172369;27;20125;-73
2022/10/05 06:03:36;;;;;;;5.03;2.63;;;;;;;9.98;100.00;99692.75;5172258;27;20095;-75
2022/10/05 06:06:08;;;;;;;10.88;3.20;;;;;;;9.92;100.00;99718.78;5172241;27;20046;-69
2022/10/05 06:08:39;;;;;;;11.65;3.25;;;;;;;9.96;100.00;99722.44;5172229;27;20050;-71
2022/10/05 06:11:11;;;;;;;7.32;2.75;;;;;;;9.67;100.00;99737.22;5172537;27;20098;-68
2022/10/05 06:13:39;;;;;;;3.42;2.05;;;;;;;10.08;100.00;99738.03;5172274;27;20447;-70
2022/10/05 06:16:12;;;;;;;4.35;1.80;;;;;;;9.96;100.00;99749.81;5172486;27;20580;-67
2022/10/05 06:18:43;;;;;;;5.75;2.63;;;;;;;10.16;100.00;99750.00;5171958;27;20050;-69
2022/10/05 06:21:17;;;;;;;6.00;2.03;;;;;;;10.31;100.00;99744.59;5172116;27;20507;-69
2022/10/05 06:23:51;;;;;;;3.20;2.38;;;;;;;10.07;100.00;99770.13;5172110;27;20049;-70
2022/10/05 06:26:46;;;;;;;27.23;12.88;;;;;;;10.40;100.00;99760.91;5171915;27;20046;-70
2022/10/05 06:29:18;;;;;;;4.90;3.60;;;;;;;10.43;100.00;99770.38;5094529;27;20048;-70
2022/10/05 06:32:03;;;;;;;8.73;4.15;;;;;;;10.53;100.00;99767.13;5172018;27;20420;-70
2022/10/05 06:34:53;;;;;;;6.00;3.15;;;;;;;10.41;100.00;99762.50;5171738;27;20114;-70
2022/10/05 06:37:27;;;;;;;19.92;9.30;;;;;;;10.32;100.00;99775.53;5172094;27;20485;-69
2022/10/05 06:40:07;;;;;;;15.15;7.50;;;;;;;10.54;100.00;99775.00;5172193;27;20470;-70
2022/10/05 06:42:49;;;;;;;9.27;3.92;;;;;;;10.63;100.00;99774.88;5172091;27;20057;-70
2022/10/05 06:45:23;;;;;;;6.70;3.75;;;;;;;11.10;100.00;99768.66;5171482;27;20493;-69
2022/10/05 06:47:56;;;;;;;10.38;3.97;;;;;;;11.15;100.00;99762.09;5171731;27;20425;-69
2022/10/05 06:50:33;;;;;;;28.13;6.53;;;;;;;11.65;100.00;99752.28;5171831;27;20046;-68
2022/10/05 06:53:15;;;;;;;50.63;10.18;;;;;;;12.37;100.00;99694.97;5159547;27;20046;-63
2022/10/05 06:55:48;;;;;;;21.70;6.35;;;;;;;11.78;100.00;99619.97;5175385;27;20505;-61
2022/10/05 06:58:44;;;;;;;9.13;2.73;;;;;;;12.57;100.00;99551.91;5175231;27;20042;-65
2022/10/05 07:01:19;;;;;;;4.72;2.70;;;;;;;12.21;100.00;99549.34;5171881;27;20054;-65
2022/10/05 07:03:58;;;;;;;19.63;5.90;;;;;;;12.37;100.00;99576.75;5174903;27;20140;-63
2022/10/05 07:06:31;;;;;;;8.30;3.00;;;;;;;12.00;100.00;99522.31;5175113;27;20140;-63
2022/10/05 07:09:14;;;;;;;7.22;3.97;;;;;;;11.97;100.00;99579.94;5175278;27;20052;-62
2022/10/05 07:12:08;;;;;;;3.28;2.47;;;;;;;11.80;100.00;99627.88;5175111;27;20073;-65
2022/10/05 07:14:58;;;;;;;4.90;3.42;;;;;;;11.38;100.00;99674.41;5175261;27;20046;-62
2022/10/05 07:17:41;;;;;;;8.13;3.45;;;;;;;11.56;100.00;99708.53;5174958;27;20144;-63
2022/10/05 07:20:15;;;;;;;7.07;4.85;;;;;;;11.51;100.00;99708.84;5174900;27;20457;-63
2022/10/05 07:23:03;;;;;;;3.95;2.40;;;;;;;11.50;100.00;99731.97;5175023;27;20103;-64
2022/10/05 07:25:36;;;;;;;9.07;4.65;;;;;;;11.39;100.00;99744.63;5174733;27;20060;-62
2022/10/05 07:28:08;;;;;;;7.97;2.35;;;;;;;11.32;100.00;99762.50;5174826;27;20042;-63
2022/10/05 07:30:44;;;;;;;9.25;3.33;;;;;;;11.46;100.00;99784.06;5174365;27;20098;-65
2022/10/05 07:33:17;;;;;;;7.15;2.95;;;;;;;11.47;100.00;99802.09;5174823;27;20512;-63
2022/10/05 07:38:41;;;;;;;9.18;2.13;;;;;;;11.58;100.00;99804.31;5174435;27;20118;-63
2022/10/05 07:41:18;;;;;;;3.80;2.47;;;;;;;11.63;100.00;99793.88;5174964;27;20423;-64
2022/10/05 07:43:52;;;;;;;5.30;2.50;;;;;;;11.64;100.00;99792.69;5174240;27;20590;-64
2022/10/05 07:46:26;;;;;;;1.98;1.80;;;;;;;11.70;100.00;99796.78;5174595;27;20046;-63
2022/10/05 07:49:02;;;;;;;3.97;2.58;;;;;;;11.74;100.00;99800.41;5174269;27;20052;-63
2022/10/05 07:51:35;;;;;;;17.17;4.78;;;;;;;11.63;100.00;99796.63;5174135;27;20046;-64
2022/10/05 07:54:15;;;;;;;2.15;1.98;;;;;;;11.64;100.00;99800.16;5174267;27;20054;-65
2022/10/05 07:56:43;;;;;;;4.53;2.47;;;;;;;11.76;100.00;99800.03;5174260;27;20042;-65
2022/10/05 07:59:19;;;;;;;7.82;4.15;;;;;;;11.93;100.00;99776.91;5174177;27;20051;-64
2022/10/05 08:01:54;;;;;;;6.95;2.42;;;;;;;12.13;100.00;99774.97;5173755;27;20425;-64
2022/10/05 08:04:24;;;;;;;6.47;2.08;;;;;;;12.30;100.00;99751.78;5174076;27;20054;-63
2022/10/05 08:06:54;;;;;;;3.35;2.08;;;;;;;12.39;100.00;99725.63;5173960;27;20527;-65
2022/10/05 08:09:41;;;;;;;7.82;3.30;;;;;;;12.51;100.00;99696.38;5173942;27;20046;-64
2022/10/05 08:12:26;;;;;;;4.20;2.72;;;;;;;12.74;100.00;99666.16;5174177;27;20089;-63
2022/10/05 08:14:56;;;;;;;3.45;1.90;;;;;;;12.65;100.00;99642.41;5173940;27;20054;-65
2022/10/05 08:17:31;;;;;;;6.80;3.03;;;;;;;12.72;100.00;99642.53;5173771;27;20054;-65
2022/10/05 08:20:06;;;;;;;1.58;1.48;;;;;;;12.58;100.00;99627.75;5173868;27;20050;-65
2022/10/05 08:22:41;;;;;;;4.13;1.92;;;;;;;12.47;100.00;99609.13;5173738;27;20053;-65
2022/10/05 08:25:17;;;;;;;4.15;2.35;;;;;;;12.40;100.00;99636.50;5173842;27;20110;-64
2022/10/05 08:27:51;;;;;;;4.15;2.90;;;;;;;12.18;100.00;99645.50;5173779;27;20050;-64
2022/10/05 08:30:19;;;;;;;8.40;2.97;;;;;;;12.00;100.00;99698.16;5174042;27;20061;-63
2022/10/05 08:32:50;;;;;;;6.50;3.80;;;;;;;11.80;100.00;99743.25;5173557;27;20046;-63
2022/10/05 08:35:26;;;;;;;6.35;3.75;;;;;;;11.84;100.00;99732.31;5173452;27;20455;-64
2022/10/05 08:37:53;;;;;;;8.60;5.35;;;;;;;11.93;100.00;99732.94;5173430;27;20509;-65
2022/10/05 08:40:52;;;;;;;9.57;3.25;;;;;;;12.07;100.00;99754.44;5173791;27;20204;-63
2022/10/05 08:43:37;;;;;;;4.30;2.50;;;;;;;11.96;100.00;99755.00;5166822;27;20074;-63
2022/10/05 08:46:22;;;;;;;6.07;2.90;;;;;;;12.06;100.00;99745.38;5173474;27;20056;-65
2022/10/05 08:49:23;;;;;;;3.67;2.05;;;;;;;12.05;100.00;99743.00;5173501;27;20046;-64
2022/10/05 08:52:22;;;;;;;1.88;1.67;;;;;;;12.01;100.00;99727.22;5159391;27;20051;-64
2022/10/05 08:55:24;;;;;;;5.43;3.65;;;;;;;12.33;100.00;99729.03;5165628;27;20424;-63
2022/10/05 08:58:06;;;;;;;3.83;1.98;;;;;;;12.05;100.00;99737.50;5173445;27;20057;-65
2022/10/05 09:00:45;;;;;;;2.60;1.83;;;;;;;12.32;100.00;99746.69;5173155;27;20505;-63
2022/10/05 09:03:43;;;;;;;3.75;2.03;;;;;;;12.17;100.00;99729.91;5173019;27;20095;-63
2022/10/05 09:06:45;;;;;;;4.80;2.20;;;;;;;11.99;100.00;99732.28;5173634;27;20145;-63
2022/10/05 09:09:30;;;;;;;4.05;1.85;;;;;;;12.33;100.00;99724.34;5172831;27;20053;-64
2022/10/05 09:12:19;;;;;;;10.80;2.45;;;;;;;12.28;100.00;99699.88;5172121;27;20519;-64
2022/10/05 09:15:06;;;;;;;7.30;2.00;;;;;;;12.24;100.00;99694.31;5173139;27;20083;-65
2022/10/05 09:17:50;;;;;;;7.43;2.55;;;;;;;12.36;100.00;99711.81;5173042;27;20042;-65
2022/10/05 09:20:29;;;;;;;2.28;1.70;;;;;;;12.28;100.00;99708.13;5172994;27;20122;-58
2022/10/05 09:23:09;;;;;;;7.22;2.20;;;;;;;12.46;100.00;99709.28;5172810;27;20061;-65
2022/10/05 09:25:43;;;;;;;36.17;2.67;;;;;;;12.57;100.00;99697.69;5172949;27;20053;-62
2022/10/05 09:28:24;;;;;;;2.15;1.65;;;;;;;12.56;100.00;99710.66;5173120;27;20497;-66
2022/10/05 09:31:15;;;;;;;8.20;2.20;;;;;;;12.36;100.00;99709.88;5172767;27;20675;-63
2022/10/05 09:34:08;;;;;;;5.07;1.77;;;;;;;12.54;100.00;99732.22;5172701;27;20099;-63
2022/10/05 09:37:13;;;;;;;2.47;1.65;;;;;;;12.54;100.00;99703.91;5172494;27;20058;-62
2022/10/05 09:40:04;;;;;;;3.03;1.95;;;;;;;12.56;100.00;99657.56;5172624;27;20046;-59
2022/10/05 09:42:58;;;;;;;6.40;1.80;;;;;;;12.10;100.00;99672.06;5172736;27;20049;-61
2022/10/05 09:45:57;;;;;;;4.20;2.00;;;;;;;12.52;100.00;99663.00;5165623;27;20050;-56
2022/10/05 09:48:50;;;;;;;3.17;1.70;;;;;;;12.42;100.00;99619.63;5172302;27;20113;-59
2022/10/05 09:51:51;;;;;;;3.03;1.63;;;;;;;12.43;100.00;99601.97;5172439;27;20090;-60
2022/10/05 09:54:45;;;;;;;1.50;1.40;;;;;;;12.16;100.00;99620.31;5172602;27;20064;-58
2022/10/05 09:57:43;;;;;;;7.10;1.77;;;;;;;12.27;100.00;99623.28;5172310;27;20497;-60
2022/10/05 10:00:25;;;;;;;5.63;2.63;;;;;;;12.34;100.00;99624.22;5153615;27;20081;-59
2022/10/05 10:03:15;;;;;;;5.07;1.73;;;;;;;12.35;100.00;99630.50;5172082;27;20046;-58
2022/10/05 10:06:20;;;;;;;5.57;1.70;;;;;;;12.54;100.00;99580.16;5172805;27;20470;-65
2022/10/05 10:09:02;;;;;;;5.00;2.53;;;;;;;12.58;100.00;99548.78;5172363;27;20050;-63
2022/10/05 10:11:45;;;;;;;3.78;2.10;;;;;;;12.79;100.00;99545.56;5172342;27;20453;-62
2022/10/05 10:14:49;;;;;;;10.55;3.40;;;;;;;12.80;100.00;99574.69;5172163;27;20054;-65
2022/10/05 10:17:42;;;;;;;5.97;2.80;;;;;;;12.75;100.00;99563.97;5172551;27;20050;-62
2022/10/05 10:20:33;;;;;;;4.75;2.33;;;;;;;12.53;100.00;99501.53;5172221;27;20061;-60
2022/10/05 10:23:27;;;;;;;3.53;2.08;;;;;;;13.14;100.00;99464.66;5172873;27;20358;-60
2022/10/05 10:26:24;;;;;;;3.97;2.22;;;;;;;13.33;100.00;99362.66;5178932;27;20046;-55
2022/10/05 10:29:28;;;;;;;5.32;2.70;;;;;;;13.34;100.00;99229.31;5178879;27;20042;-59
2022/10/05 10:32:09;;;;;;;6.38;2.40;;;;;;;13.85;100.00;99139.50;5142416;27;20057;-59
2022/10/05 10:35:08;;;;;;;6.78;2.28;;;;;;;13.80;100.00;99063.53;5178776;27;20484;-60
2022/10/05 10:38:05;;;;;;;6.82;2.47;;;;;;;13.48;100.00;99101.94;5178864;27;20092;-59
2022/10/05 10:40:41;;;;;;;3.28;2.13;;;;;;;13.81;100.00;99067.06;5179024;27;20050;-60
2022/10/05 10:43:31;;;;;;;5.30;2.13;;;;;;;13.62;100.00;98988.28;5179122;27;20132;-60
2022/10/05 10:46:11;;;;;;;5.20;3.40;;;;;;;13.73;100.00;98993.81;5178568;27;20045;-60
2022/10/05 10:48:56;;;;;;;3.63;2.15;;;;;;;13.56;100.00;98965.88;5178539;27;20042;-55
2022/10/05 10:51:52;;;;;;;3.60;1.85;;;;;;;13.96;100.00;98958.47;5178761;27;20054;-55
2022/10/05 10:54:36;;;;;;;7.10;2.67;;;;;;;13.77;100.00;98991.88;5178973;27;20549;-59
2022/10/05 10:57:09;;;;;;;7.97;3.13;;;;;;;14.25;100.00;98984.03;5178433;27;20050;-59
2022/10/05 11:00:26;;;;;;;5.13;2.53;;;;;;;14.91;100.00;98847.56;5179045;27;20050;-59
2022/10/05 11:03:28;;;;;;;4.68;2.60;;;;;;;14.59;100.00;98708.59;5093658;28;20530;-58
2022/10/05 11:06:25;;;;;;;3.58;2.45;;;;;;;14.34;100.00;98843.81;5093615;28;20471;-59
2022/10/05 11:09:26;;;;;;;8.80;2.55;;;;;;;13.82;100.00;98909.59;5093324;28;20048;-60
2022/10/05 11:12:28;;;;;;;2.80;1.98;;;;;;;13.96;100.00;98949.38;5093537;28;20048;-60
2022/10/05 11:15:24;;;;;;;5.03;2.70;;;;;;;14.09;100.00;98991.91;5090296;28;20455;-61
2022/10/05 11:18:16;;;;;;;9.15;4.50;;;;;;;14.14;100.00;98980.50;5093293;28;20569;-59
2022/10/05 11:21:13;;;;;;;4.07;2.60;;;;;;;13.92;100.00;99048.59;5093414;28;20052;-60
2022/10/05 11:24:10;;;;;;;11.10;4.85;;;;;;;13.64;100.00;99065.81;5093414;28;20066;-62
2022/10/05 11:26:57;;;;;;;4.60;2.03;;;;;;;14.00;100.00;99069.47;5093209;28;20048;-62
2022/10/05 11:29:52;;;;;;;7.65;2.35;;;;;;;13.88;100.00;99097.38;5093355;28;20052;-60
2022/10/05 11:33:10;;;;;;;6.70;1.90;;;;;;;14.03;100.00;99024.59;5064826;28;20083;-60
2022/10/05 11:36:07;;;;;;;5.85;2.45;;;;;;;13.70;100.00;99041.44;5175619;27;20106;-65
2022/10/05 11:39:05;;;;;;;7.70;2.13;;;;;;;13.62;100.00;99126.78;5174695;27;20073;-65
2022/10/05 11:42:12;;;;;;;8.63;3.38;;;;;;;13.68;100.00;99170.50;5174654;27;20083;-65
2022/10/05 11:45:06;;;;;;;3.63;2.13;;;;;;;13.83;100.00;99133.59;5150939;27;20050;-62
2022/10/05 11:47:36;;;;;;;5.68;1.95;;;;;;;13.56;100.00;99053.19;5171245;27;20050;-60
2022/10/05 11:50:14;;;;;;;3.75;2.00;;;;;;;13.45;100.00;99061.41;5174335;27;20054;-60
2022/10/05 11:52:46;;;;;;;9.48;3.30;;;;;;;13.65;100.00;99205.13;5174494;27;20054;-61
2022/10/05 11:55:22;;;;;;;5.80;2.90;;;;;;;13.45;100.00;99133.00;5174145;27;20090;-59
2022/10/05 11:57:53;;;;;;;6.57;2.20;;;;;;;13.39;100.00;99121.59;5174422;27;20050;-59
2022/10/05 12:00:21;;;;;;;4.38;1.80;;;;;;;13.41;100.00;99132.19;5174375;27;20057;-59
2022/10/05 12:03:02;;;;;;;8.10;3.60;;;;;;;13.67;100.00;99146.91;5174584;27;20052;-58
2022/10/05 12:05:37;;;;;;;12.27;2.50;;;;;;;13.38;100.00;99089.69;5174190;27;20081;-58
2022/10/05 12:08:18;;;;;;;3.72;2.20;;;;;;;13.49;100.00;99124.75;5173900;27;20497;-58
2022/10/05 12:10:58;;;;;;;11.05;2.20;;;;;;;13.76;100.00;99106.81;5174171;27;20060;-59
2022/10/05 12:13:35;;;;;;;8.10;2.38;;;;;;;13.75;100.00;99087.91;5174281;27;20057;-58
2022/10/05 12:16:07;;;;;;;6.07;2.95;;;;;;;13.89;100.00;99156.84;5173906;27;20410;-58
2022/10/05 12:18:52;;;;;;;8.43;3.30;;;;;;;13.75;100.00;99143.00;5173878;27;20061;-59
2022/10/05 12:21:31;;;;;;;12.48;2.38;;;;;;;13.86;100.00;99144.63;5173998;27;20057;-57
2022/10/05 12:24:01;;;;;;;8.52;2.47;;;;;;;13.87;100.00;99206.06;5174178;27;20053;-60
2022/10/05 12:26:32;;;;;;;5.43;3.03;;;;;;;13.75;100.00;99229.19;5173824;27;20056;-57
2022/10/05 12:29:03;;;;;;;9.07;2.00;;;;;;;13.84;100.00;99237.91;5174089;27;20058;-67